Time;durP1;ratioP1;P1;durP2;ratioP2;P2;SDS_P1;SDS_P2;PMS_P1;PMS_P2;Temp;Humidity;BMP_temperature;BMP_pressure;BME280_temperature;BME280_humidity;BME280_pressure;Samples;Min_cycle;Max_cycle;Signal;HPM_P1;HPM_P2
2021/08/21 00:01:09;;;;;;;;;6.50;5.50;;;;;19.20;68.74;101450.69;5033152;28;45563;-77
2021/08/21 00:03:35;;;;;;;;;5.00;5.00;;;;;19.16;69.07;101445.66;5040221;28;45626;-74
2021/08/21 00:06:00;;;;;;;;;4.25;4.25;;;;;19.16;68.76;101456.31;5037521;28;46132;-74
2021/08/21 00:08:25;;;;;;;;;5.75;5.25;;;;;19.08;69.20;101446.19;5040944;28;49236;-76
2021/08/21 00:10:51;;;;;;;;;4.50;3.75;;;;;19.04;69.66;101437.56;5048311;28;45434;-73
2021/08/21 00:13:16;;;;;;;;;5.75;5.00;;;;;19.00;69.66;101441.41;5034439;28;45298;-73
2021/08/21 00:15:41;;;;;;;;;3.50;3.50;;;;;19.05;69.81;101449.06;5041330;28;47586;-74
2021/08/21 00:18:07;;;;;;;;;6.75;5.00;;;;;19.04;69.47;101450.03;5033917;28;45569;-73
2021/08/21 00:20:32;;;;;;;;;5.75;5.50;;;;;18.99;69.55;101444.16;5034672;28;45426;-74
2021/08/21 00:22:58;;;;;;;;;4.00;4.00;;;;;18.85;69.35;101426.44;5034085;28;45493;-74
2021/08/21 00:25:23;;;;;;;;;5.25;5.25;;;;;18.96;69.91;101445.22;5034293;28;46034;-74
2021/08/21 00:27:48;;;;;;;;;5.00;5.00;;;;;18.71;69.57;101394.53;5034644;28;48920;-74
2021/08/21 00:30:14;;;;;;;;;6.00;4.50;;;;;18.89;69.54;101435.06;5034910;28;45521;-74
2021/08/21 00:32:39;;;;;;;;;4.00;4.00;;;;;18.90;70.14;101437.66;5012722;28;45810;-73
2021/08/21 00:35:07;;;;;;;;;5.25;5.25;;;;;18.86;70.34;101421.97;5025750;28;46397;-74
2021/08/21 00:37:32;;;;;;;;;5.25;5.25;;;;;18.84;70.18;101427.38;5033627;28;45926;-74
2021/08/21 00:39:58;;;;;;;;;6.75;4.75;;;;;18.82;70.07;101418.66;5034238;28;46354;-74
2021/08/21 00:42:23;;;;;;;;;4.25;4.25;;;;;18.76;70.08;101411.91;5034925;28;45699;-74
2021/08/21 00:44:48;;;;;;;;;4.75;4.75;;;;;18.71;70.47;101411.38;5033637;28;45360;-76
2021/08/21 00:47:17;;;;;;;;;6.75;4.00;;;;;18.76;70.41;101429.72;5033505;28;45474;-74
2021/08/21 00:49:51;;;;;;;;;6.00;5.00;;;;;18.72;70.48;101428.19;5034258;28;45411;-74
2021/08/21 00:52:30;;;;;;;;;5.25;5.25;;;;;18.72;71.12;101422.88;5019081;28;45332;-73
2021/08/21 00:54:57;;;;;;;;;6.00;5.00;;;;;18.69;70.98;101417.78;5034228;28;47457;-74
2021/08/21 00:57:23;;;;;;;;;4.50;4.00;;;;;18.49;70.47;101393.28;5032049;28;45834;-74
2021/08/21 00:59:51;;;;;;;;;6.00;5.50;;;;;18.63;70.64;101408.31;5033823;28;45471;-74
2021/08/21 01:02:17;;;;;;;;;5.25;5.25;;;;;18.63;71.03;101410.13;5033945;28;45418;-74
2021/08/21 01:04:46;;;;;;;;;5.25;4.50;;;;;18.62;70.73;101419.94;5034400;28;45555;-73
2021/08/21 01:07:16;;;;;;;;;6.00;6.00;;;;;18.58;70.97;101407.75;5018048;28;45368;-73
2021/08/21 01:09:42;;;;;;;;;6.50;6.50;;;;;18.58;71.19;101413.09;5033773;28;45445;-74
2021/08/21 01:12:13;;;;;;;;;8.00;5.00;;;;;18.61;71.36;101420.03;5034056;28;45463;-74
2021/08/21 01:14:38;;;;;;;;;6.25;6.00;;;;;18.58;71.38;101413.09;5033796;28;46200;-75
2021/08/21 01:17:05;;;;;;;;;7.00;6.50;;;;;18.56;71.17;101406.16;5033673;28;45597;-73
2021/08/21 01:19:41;;;;;;;;;6.25;5.00;;;;;18.55;71.23;101405.31;5033103;28;45404;-73
2021/08/21 01:22:12;;;;;;;;;6.00;6.00;;;;;18.51;71.19;101401.16;5016770;28;45525;-74
2021/08/21 01:24:43;;;;;;;;;6.00;6.00;;;;;18.50;71.54;101402.97;5033855;28;46416;-75
2021/08/21 01:27:20;;;;;;;;;5.00;5.00;;;;;18.47;71.34;101394.31;5033680;28;45396;-73
2021/08/21 01:29:45;;;;;;;;;7.00;6.00;;;;;18.39;71.74;101394.81;5033243;28;45454;-76
2021/08/21 01:32:11;;;;;;;;;6.25;6.25;;;;;18.44;72.11;101403.38;5033214;28;45488;-73
2021/08/21 01:34:36;;;;;;;;;6.50;5.00;;;;;18.41;71.95;101398.22;5032907;28;45556;-73
2021/08/21 01:37:02;;;;;;;;;6.25;5.00;;;;;18.40;72.30;101393.03;5032846;28;45465;-73
2021/08/21 01:39:27;;;;;;;;;8.50;6.00;;;;;18.38;72.17;101405.59;5033750;28;45507;-73
2021/08/21 01:41:53;;;;;;;;;6.25;5.25;;;;;18.36;72.08;101399.47;5033171;28;58739;-74
2021/08/21 01:44:18;;;;;;;;;6.25;5.75;;;;;18.35;72.54;101406.63;5034554;28;57372;-74
2021/08/21 01:46:48;;;;;;;;;5.25;5.25;;;;;18.32;72.68;101401.47;5036527;28;45434;-74
2021/08/21 01:49:16;;;;;;;;;6.00;5.00;;;;;18.32;72.10;101395.31;5030618;28;45498;-74
2021/08/21 01:51:43;;;;;;;;;5.75;5.00;;;;;18.28;72.19;101394.69;5037780;28;45451;-74
2021/08/21 01:54:10;;;;;;;;;7.00;6.25;;;;;18.25;72.79;101385.06;5036979;28;46451;-73
2021/08/21 01:56:52;;;;;;;;;5.50;5.50;;;;;18.22;72.82;101392.41;5036721;28;45772;-73
2021/08/21 01:59:29;;;;;;;;;9.50;6.50;;;;;18.22;72.86;101393.28;5036391;28;45582;-73
2021/08/21 02:01:54;;;;;;;;;6.50;6.50;;;;;18.16;72.54;101385.66;5036522;28;45475;-73
2021/08/21 02:04:20;;;;;;;;;9.00;7.50;;;;;18.21;72.50;101382.69;5036160;28;46019;-74
2021/08/21 02:06:46;;;;;;;;;6.00;6.00;;;;;18.18;72.89;101377.59;5036796;28;45509;-76
2021/08/21 02:09:13;;;;;;;;;11.00;5.75;;;;;18.20;72.63;101384.50;5048128;28;45535;-74
2021/08/21 02:11:38;;;;;;;;;6.75;6.75;;;;;18.19;72.40;101376.63;5040820;28;45440;-73
2021/08/21 02:14:04;;;;;;;;;5.00;5.00;;;;;18.13;72.83;101377.88;5040650;28;45894;-74
2021/08/21 02:16:29;;;;;;;;;8.75;6.75;;;;;18.17;72.43;101387.38;5036314;28;45501;-74
2021/08/21 02:18:55;;;;;;;;;5.50;5.50;;;;;18.17;72.71;101383.88;5035999;28;45828;-73
2021/08/21 02:21:21;;;;;;;;;3.50;3.50;;;;;18.18;72.74;101374.94;5036507;28;45304;-73
2021/08/21 02:23:47;;;;;;;;;7.00;5.00;;;;;18.15;72.70;101364.47;5036492;28;45306;-74
2021/08/21 02:26:12;;;;;;;;;7.75;6.75;;;;;18.22;73.22;101363.16;5036182;28;45497;-74
2021/08/21 02:28:38;;;;;;;;;10.00;7.00;;;;;18.24;73.21;101364.75;5036185;28;45363;-77
2021/08/21 02:31:04;;;;;;;;;5.50;5.50;;;;;18.25;72.76;101370.91;5036461;28;45502;-74
2021/08/21 02:33:30;;;;;;;;;7.50;7.50;;;;;18.19;73.34;101364.19;5036810;28;46211;-73
2021/08/21 02:35:55;;;;;;;;;6.00;6.00;;;;;18.28;73.49;101369.88;5035828;28;45671;-74
2021/08/21 02:38:22;;;;;;;;;7.25;6.00;;;;;18.25;73.63;101373.56;5038081;28;45997;-73
2021/08/21 02:40:48;;;;;;;;;10.75;5.00;;;;;18.29;73.61;101379.56;5047045;28;45319;-74
2021/08/21 02:43:14;;;;;;;;;5.00;5.00;;;;;18.30;73.57;101373.28;5035990;28;45723;-74
2021/08/21 02:45:39;;;;;;;;;6.50;6.50;;;;;18.28;73.08;101368.06;5036380;28;45407;-73
2021/08/21 02:48:05;;;;;;;;;7.25;5.00;;;;;18.29;73.25;101367.09;5036128;28;51225;-73
2021/08/21 02:50:30;;;;;;;;;6.50;6.50;;;;;18.22;72.88;101366.66;5040665;28;45666;-73
2021/08/21 02:52:55;;;;;;;;;10.00;6.25;;;;;18.25;73.04;101371.75;5035099;28;46881;-74
2021/08/21 02:55:21;;;;;;;;;7.00;5.75;;;;;18.25;73.19;101370.91;5035794;28;45256;-73
2021/08/21 02:57:46;;;;;;;;;6.50;5.00;;;;;18.25;72.86;101370.91;5035777;28;45518;-73
2021/08/21 03:00:12;;;;;;;;;6.00;6.00;;;;;18.04;72.99;101337.72;5036392;28;45353;-73
2021/08/21 03:02:37;;;;;;;;;6.00;5.00;;;;;18.19;73.02;101369.50;5034951;28;45552;-73
2021/08/21 03:05:03;;;;;;;;;6.25;6.00;;;;;18.18;72.96;101373.13;5035119;28;45451;-74
2021/08/21 03:07:30;;;;;;;;;5.00;5.00;;;;;18.13;73.04;101367.25;5035610;28;45434;-73
2021/08/21 03:09:55;;;;;;;;;5.00;5.00;;;;;18.10;72.60;101359.47;5035983;28;45364;-73
2021/08/21 03:12:20;;;;;;;;;7.75;6.50;;;;;18.13;73.00;101359.28;5035719;28;46249;-74
2021/08/21 03:14:46;;;;;;;;;6.00;5.75;;;;;18.11;72.80;101360.31;5035227;28;49156;-74
2021/08/21 03:17:11;;;;;;;;;8.75;6.50;;;;;18.11;73.00;101349.66;5035221;28;45553;-74
2021/08/21 03:19:37;;;;;;;;;5.25;5.25;;;;;18.07;73.29;101348.19;5035480;28;45384;-73
2021/08/21 03:22:03;;;;;;;;;5.50;5.50;;;;;18.06;72.92;101360.59;5035376;28;45511;-73
2021/08/21 03:24:29;;;;;;;;;5.75;5.75;;;;;18.07;73.32;101365.00;5035576;28;45502;-74
2021/08/21 03:26:54;;;;;;;;;9.50;6.75;;;;;18.06;73.51;101367.72;5035110;28;45911;-73
2021/08/21 03:29:19;;;;;;;;;5.25;5.25;;;;;18.06;73.65;101365.91;5035100;28;45313;-73
2021/08/21 03:31:44;;;;;;;;;8.00;7.50;;;;;18.05;73.95;101356.25;5035190;28;46779;-74
2021/08/21 03:34:10;;;;;;;;;6.75;6.00;;;;;18.06;74.12;101357.09;5034579;28;45534;-74
2021/08/21 03:36:35;;;;;;;;;5.00;5.00;;;;;18.05;73.89;101352.72;5040031;28;45383;-73
2021/08/21 03:39:00;;;;;;;;;5.25;5.25;;;;;17.95;74.01;101337.34;5035096;28;45335;-73
2021/08/21 03:41:26;;;;;;;;;8.25;6.00;;;;;18.00;73.73;101358.34;5035339;28;46445;-73
2021/08/21 03:43:51;;;;;;;;;5.50;5.50;;;;;17.96;73.80;101349.72;5034704;28;45395;-73
2021/08/21 03:46:16;;;;;;;;;5.25;5.00;;;;;17.96;73.78;101352.38;5034610;28;45399;-74
2021/08/21 03:48:42;;;;;;;;;5.00;5.00;;;;;17.92;73.83;101342.88;5035562;28;45297;-74
2021/08/21 03:51:07;;;;;;;;;5.25;5.00;;;;;17.86;74.05;101337.97;5034676;28;45481;-74
2021/08/21 03:53:32;;;;;;;;;6.25;5.00;;;;;17.87;74.34;101346.78;5034300;28;51073;-74
2021/08/21 03:55:58;;;;;;;;;6.50;5.50;;;;;17.82;74.56;101343.56;5034742;28;45510;-75
2021/08/21 03:58:23;;;;;;;;;8.25;6.25;;;;;17.83;74.50;101342.63;5035067;28;45459;-74
2021/08/21 04:00:48;;;;;;;;;7.25;5.75;;;;;17.74;74.37;101331.59;5034458;28;46919;-74
2021/08/21 04:03:13;;;;;;;;;6.00;6.00;;;;;17.75;74.35;101337.81;5034457;28;54598;-73
2021/08/21 04:05:40;;;;;;;;;5.00;5.00;;;;;17.73;74.51;101337.88;5033463;28;48338;-74
2021/08/21 04:08:06;;;;;;;;;8.25;6.50;;;;;17.70;74.80;101331.88;5033887;28;45541;-73
2021/08/21 04:10:32;;;;;;;;;9.50;8.00;;;;;17.68;74.93;101325.78;5034905;28;46025;-74
2021/08/21 04:12:57;;;;;;;;;8.00;6.25;;;;;17.67;74.50;101340.03;5034581;28;45471;-75
2021/08/21 04:15:22;;;;;;;;;9.50;7.00;;;;;17.62;74.94;101331.50;5032324;28;50812;-74
2021/08/21 04:17:48;;;;;;;;;8.25;6.75;;;;;17.60;74.72;101328.94;5034694;28;45434;-74
2021/08/21 04:20:13;;;;;;;;;6.75;6.75;;;;;17.59;74.89;101321.94;5034021;28;46143;-74
2021/08/21 04:22:39;;;;;;;;;6.00;6.00;;;;;17.56;75.19;101329.25;5014757;28;45365;-76
2021/08/21 04:25:05;;;;;;;;;6.00;6.00;;;;;17.53;75.28;101326.75;5034567;28;45447;-75
2021/08/21 04:27:30;;;;;;;;;9.00;7.50;;;;;17.50;75.19;101329.63;5035455;28;45428;-73
2021/08/21 04:29:55;;;;;;;;;8.00;8.00;;;;;17.47;74.93;101328.00;5015668;28;48049;-74
2021/08/21 04:32:21;;;;;;;;;6.50;6.25;;;;;17.43;75.18;101322.00;5034191;28;45519;-74
2021/08/21 04:34:46;;;;;;;;;8.00;7.50;;;;;17.41;75.28;101318.59;5034518;28;45384;-75
2021/08/21 04:37:12;;;;;;;;;10.50;8.25;;;;;17.39;75.23;101319.66;5034413;28;45534;-73
2021/08/21 04:39:37;;;;;;;;;8.75;5.75;;;;;17.36;75.27;101310.06;5034521;28;45953;-74
2021/08/21 04:42:03;;;;;;;;;8.00;8.00;;;;;17.31;75.26;101312.16;5034255;28;45523;-75
2021/08/21 04:44:28;;;;;;;;;10.00;7.00;;;;;17.34;75.23;101313.78;5033548;28;45451;-75
2021/08/21 04:46:54;;;;;;;;;7.00;7.00;;;;;17.31;75.58;101314.81;5034141;28;45415;-76
2021/08/21 04:49:19;;;;;;;;;7.75;7.00;;;;;17.29;75.62;101316.72;5034083;28;45586;-75
2021/08/21 04:51:45;;;;;;;;;11.00;7.00;;;;;17.27;75.73;101313.28;5034021;28;45502;-75
2021/08/21 04:54:10;;;;;;;;;9.50;7.75;;;;;17.25;75.85;101320.50;5034427;28;45442;-75
2021/08/21 04:56:35;;;;;;;;;7.50;7.50;;;;;17.24;76.08;101317.97;5033905;28;45390;-76
2021/08/21 04:59:01;;;;;;;;;7.25;7.25;;;;;17.20;75.54;101310.16;5033128;28;45553;-75
2021/08/21 05:01:26;;;;;;;;;12.25;8.75;;;;;17.26;76.03;101322.22;5033411;28;50343;-75
2021/08/21 05:03:51;;;;;;;;;7.75;7.75;;;;;17.27;76.19;101325.72;5033895;28;45419;-75
2021/08/21 05:06:17;;;;;;;;;9.25;8.25;;;;;17.18;76.34;101306.75;5034305;28;45424;-75
2021/08/21 05:08:42;;;;;;;;;8.75;7.00;;;;;17.26;76.23;101318.72;5033028;28;63103;-75
2021/08/21 05:11:08;;;;;;;;;8.50;6.75;;;;;17.30;75.61;101325.53;5034284;28;45479;-76
2021/08/21 05:13:33;;;;;;;;;9.50;6.50;;;;;17.31;75.60;101327.25;5032974;28;45400;-75
2021/08/21 05:15:59;;;;;;;;;8.00;7.00;;;;;17.29;75.74;101324.69;5033765;28;45309;-75
2021/08/21 05:18:32;;;;;;;;;10.00;9.00;;;;;17.30;76.00;101334.38;5035099;28;45325;-75
2021/08/21 05:21:05;;;;;;;;;11.00;7.00;;;;;17.32;75.90;101335.09;5037132;28;45804;-74
2021/08/21 05:23:31;;;;;;;;;9.75;8.00;;;;;17.34;75.81;101335.03;5036735;28;46206;-75
2021/08/21 05:25:57;;;;;;;;;7.75;7.50;;;;;17.35;76.14;101334.09;5036731;28;45389;-76
2021/08/21 05:28:23;;;;;;;;;8.75;8.75;;;;;17.30;76.20;101326.41;5037044;28;45916;-75
2021/08/21 05:30:48;;;;;;;;;8.00;5.75;;;;;17.40;76.19;101337.31;5037270;28;45446;-75
2021/08/21 05:33:15;;;;;;;;;9.00;7.00;;;;;17.44;76.02;101341.50;5037530;28;45305;-75
2021/08/21 05:35:41;;;;;;;;;8.75;7.50;;;;;17.49;75.62;101344.72;5036576;28;45637;-75
2021/08/21 05:38:07;;;;;;;;;9.00;7.75;;;;;17.53;75.87;101342.72;5036780;28;45383;-74
2021/08/21 05:40:33;;;;;;;;;8.00;8.00;;;;;17.57;76.10;101355.72;5037060;28;45816;-76
2021/08/21 05:42:59;;;;;;;;;6.75;6.25;;;;;17.56;75.70;101334.56;5036737;28;47897;-75
2021/08/21 05:45:25;;;;;;;;;9.00;8.00;;;;;17.65;75.88;101342.81;5037515;28;45304;-75
2021/08/21 05:47:51;;;;;;;;;8.00;8.00;;;;;17.72;75.66;101344.16;5036665;28;45304;-76
2021/08/21 05:50:18;;;;;;;;;8.00;8.00;;;;;17.81;75.63;101345.38;5036967;28;45811;-75
2021/08/21 05:52:44;;;;;;;;;8.50;7.00;;;;;17.93;75.43;101360.53;5036769;28;45277;-75
2021/08/21 05:55:09;;;;;;;;;8.50;8.00;;;;;17.99;75.64;101354.81;5036173;28;45546;-75
2021/08/21 05:57:34;;;;;;;;;7.00;7.00;;;;;18.11;75.57;101358.50;5037413;28;45380;-75
2021/08/21 06:00:00;;;;;;;;;9.25;7.50;;;;;18.18;75.54;101356.31;5018462;28;45800;-75
2021/08/21 06:02:25;;;;;;;;;10.00;7.75;;;;;18.25;75.26;101352.28;5035809;28;59349;-75
2021/08/21 06:04:52;;;;;;;;;9.75;9.25;;;;;18.44;74.56;101365.25;5036574;28;45468;-76
2021/08/21 06:07:17;;;;;;;;;9.50;6.50;;;;;18.47;73.89;101346.41;5036662;28;46320;-75
2021/08/21 06:09:42;;;;;;;;;7.00;6.50;;;;;18.67;73.87;101367.22;5036751;28;45423;-74
2021/08/21 06:12:08;;;;;;;;;9.25;7.75;;;;;18.77;74.00;101362.19;5036139;28;45865;-75
2021/08/21 06:14:37;;;;;;;;;8.50;7.00;;;;;18.85;73.92;101359.00;5036503;28;45418;-76
2021/08/21 06:17:04;;;;;;;;;8.25;8.25;;;;;18.89;73.54;101358.69;5036082;28;45489;-75
2021/08/21 06:19:29;;;;;;;;;10.25;9.75;;;;;19.06;73.28;101372.69;5036645;28;45441;-75
2021/08/21 06:21:54;;;;;;;;;7.50;7.00;;;;;19.09;72.75;101356.47;5035969;28;53167;-75
2021/08/21 06:24:20;;;;;;;;;6.25;6.00;;;;;19.24;72.52;101364.25;5035687;28;54570;-75
2021/08/21 06:26:45;;;;;;;;;7.00;7.00;;;;;19.33;72.47;101356.59;5035959;28;55207;-76
2021/08/21 06:29:10;;;;;;;;;11.00;8.75;;;;;19.42;72.05;101354.13;5034485;28;62147;-76
2021/08/21 06:31:35;;;;;;;;;8.25;6.00;;;;;19.50;71.79;101357.09;5035766;28;48478;-77
2021/08/21 06:34:01;;;;;;;;;9.50;8.00;;;;;19.59;71.57;101355.63;5035827;28;50454;-72
2021/08/21 06:36:26;;;;;;;;;8.00;8.00;;;;;19.60;71.20;101340.50;5036510;28;51268;-73
2021/08/21 06:38:52;;;;;;;;;6.75;6.75;;;;;19.77;70.87;101354.31;5035569;28;45599;-74
2021/08/21 06:41:17;;;;;;;;;9.25;7.25;;;;;19.88;70.63;101358.03;5036211;28;45533;-74
2021/08/21 06:43:42;;;;;;;;;9.00;8.25;;;;;19.97;70.54;101355.56;5036195;28;45379;-74
2021/08/21 06:46:07;;;;;;;;;7.75;6.75;;;;;20.06;69.82;101344.22;5035973;28;51977;-74
2021/08/21 06:48:34;;;;;;;;;7.75;7.75;;;;;20.16;69.41;101344.41;5036241;28;49657;-75
2021/08/21 06:51:00;;;;;;;;;5.75;5.75;;;;;20.23;69.68;101347.47;5035291;28;45572;-74
2021/08/21 06:53:26;;;;;;;;;8.75;6.50;;;;;20.25;68.98;101329.50;5033758;28;45471;-75
2021/08/21 06:55:52;;;;;;;;;9.50;8.00;;;;;20.36;68.98;101336.72;5035681;28;45541;-74
2021/08/21 06:58:19;;;;;;;;;9.00;8.25;;;;;20.40;68.79;101335.53;5034195;28;45719;-75
2021/08/21 07:00:45;;;;;;;;;5.25;5.25;;;;;20.56;69.24;101336.94;5035573;28;45448;-74
2021/08/21 07:03:10;;;;;;;;;7.25;6.75;;;;;20.68;68.38;101331.69;5035900;28;45302;-74
2021/08/21 07:05:36;;;;;;;;;6.50;6.50;;;;;20.81;68.15;101332.44;5034723;28;46230;-77
2021/08/21 07:08:01;;;;;;;;;8.75;7.75;;;;;20.90;67.87;101330.88;5034885;28;45381;-74
2021/08/21 07:10:27;;;;;;;;;8.75;6.75;;;;;20.97;67.42;101327.59;5034929;28;45255;-74
2021/08/21 07:12:52;;;;;;;;;8.00;7.00;;;;;21.06;67.25;101324.22;5034870;28;45502;-73
2021/08/21 07:15:17;;;;;;;;;5.00;5.00;;;;;21.15;66.77;101321.81;5035152;28;46012;-73
2021/08/21 07:17:43;;;;;;;;;7.50;7.50;;;;;21.34;66.97;101336.31;5034565;28;45492;-75
2021/08/21 07:20:08;;;;;;;;;8.75;7.50;;;;;21.55;67.05;101330.22;5034516;28;45621;-73
2021/08/21 07:22:34;;;;;;;;;8.25;6.25;;;;;21.73;66.39;101339.47;5033525;28;45328;-72
2021/08/21 07:24:59;;;;;;;;;5.50;5.50;;;;;21.92;65.97;101337.97;5033490;28;45719;-72
2021/08/21 07:27:24;;;;;;;;;6.00;6.00;;;;;22.37;65.91;101326.19;5032762;28;47758;-72
2021/08/21 07:29:50;;;;;;;;;6.00;5.25;;;;;23.31;64.12;101335.19;5034421;28;45435;-72
2021/08/21 07:32:15;;;;;;;;;7.00;7.00;;;;;23.57;62.74;101337.41;5029016;28;45436;-70
2021/08/21 07:34:41;;;;;;;;;7.00;3.25;;;;;23.39;61.98;101332.69;5030139;28;46117;-70
2021/08/21 07:37:07;;;;;;;;;6.00;6.00;;;;;23.17;61.89;101344.41;5030751;28;45816;-71
2021/08/21 07:39:32;;;;;;;;;7.75;6.25;;;;;23.02;61.96;101347.56;5032222;28;45691;-70
2021/08/21 07:41:57;;;;;;;;;7.00;6.00;;;;;22.96;62.85;101353.47;5029275;28;45561;-71
2021/08/21 07:44:23;;;;;;;;;9.00;6.50;;;;;22.97;62.61;101358.72;5029690;28;46063;-70
2021/08/21 07:46:48;;;;;;;;;6.25;6.25;;;;;23.02;62.25;101351.13;5029898;28;45714;-70
2021/08/21 07:49:14;;;;;;;;;8.50;6.00;;;;;23.09;62.73;101346.06;5028591;28;45470;-70
2021/08/21 07:51:40;;;;;;;;;7.00;6.25;;;;;23.17;62.41;101354.28;5034014;28;45622;-71
2021/08/21 07:54:05;;;;;;;;;6.50;6.00;;;;;23.27;62.95;101347.16;5039112;28;46118;-71
2021/08/21 07:56:31;;;;;;;;;7.00;6.50;;;;;23.37;61.96;101347.22;5037746;28;45556;-70
2021/08/21 07:58:56;;;;;;;;;9.25;6.25;;;;;23.40;61.50;101347.81;5034871;28;45737;-70
2021/08/21 08:01:22;;;;;;;;;8.25;6.25;;;;;23.54;62.25;101346.56;5035602;28;50753;-71
2021/08/21 08:03:47;;;;;;;;;7.25;5.00;;;;;23.71;61.42;101344.28;5034337;28;46063;-74
2021/08/21 08:06:13;;;;;;;;;6.50;6.50;;;;;23.87;60.66;101336.56;5034782;28;45484;-70
2021/08/21 08:08:38;;;;;;;;;8.00;6.00;;;;;24.07;60.56;101343.69;5030635;28;49951;-70
2021/08/21 08:11:03;;;;;;;;;7.75;6.50;;;;;24.27;60.21;101335.63;5033769;28;50703;-72
2021/08/21 08:13:29;;;;;;;;;7.75;7.75;;;;;24.40;60.21;101333.56;5035168;28;46300;-69
2021/08/21 08:15:54;;;;;;;;;7.25;7.25;;;;;24.57;59.50;101342.75;5035410;28;48283;-71
2021/08/21 08:18:19;;;;;;;;;8.00;7.00;;;;;24.73;59.19;101338.47;5034984;28;45345;-71
2021/08/21 08:20:45;;;;;;;;;6.00;6.00;;;;;24.88;59.60;101346.94;5036225;28;45615;-70
2021/08/21 08:23:11;;;;;;;;;9.00;7.00;;;;;24.95;58.62;101341.84;5036639;28;45336;-71
2021/08/21 08:25:37;;;;;;;;;8.75;6.75;;;;;25.06;58.87;101343.50;5034978;28;45628;-71
2021/08/21 08:28:02;;;;;;;;;7.25;6.75;;;;;25.18;58.14;101335.19;5033883;28;45658;-71
2021/08/21 08:30:28;;;;;;;;;8.00;6.25;;;;;25.36;57.96;101346.00;5034969;28;45440;-71
2021/08/21 08:32:53;;;;;;;;;6.25;6.25;;;;;25.53;57.43;101339.03;5033754;28;46120;-71
2021/08/21 08:35:19;;;;;;;;;7.75;6.75;;;;;25.62;56.83;101342.66;5032397;28;45732;-71
2021/08/21 08:37:44;;;;;;;;;7.00;5.75;;;;;25.72;57.28;101328.13;5034123;28;45257;-71
2021/08/21 08:40:10;;;;;;;;;5.50;5.50;;;;;25.98;56.16;101330.16;5033171;28;52207;-72
2021/08/21 08:42:42;;;;;;;;;7.25;6.00;;;;;26.24;55.92;101328.41;5034076;28;45411;-71
2021/08/21 08:45:13;;;;;;;;;9.25;7.00;;;;;26.48;55.39;101325.13;5033799;28;45498;-71
2021/08/21 08:47:39;;;;;;;;;6.50;6.50;;;;;26.75;54.42;101329.56;5032627;28;45474;-70
2021/08/21 08:50:08;;;;;;;;;8.50;7.25;;;;;26.99;54.48;101337.00;5031516;28;45509;-71
2021/08/21 08:52:34;;;;;;;;;5.50;5.50;;;;;27.17;53.87;101311.84;5033315;28;46192;-71
2021/08/21 08:55:02;;;;;;;;;7.50;6.00;;;;;27.42;53.85;101312.81;5033184;28;45500;-72
2021/08/21 08:57:39;;;;;;;;;5.25;4.25;;;;;27.80;52.85;101328.50;5034364;28;45494;-72
2021/08/21 09:00:09;;;;;;;;;10.00;10.00;;;;;27.97;52.52;101326.69;5032601;28;45316;-71
2021/08/21 09:02:39;;;;;;;;;8.00;7.50;;;;;28.14;51.65;101329.44;5032785;28;45463;-72
2021/08/21 09:05:09;;;;;;;;;7.75;7.00;;;;;28.40;51.47;101337.44;5031054;28;45842;-72
2021/08/21 09:07:38;;;;;;;;;6.25;6.25;;;;;28.65;51.60;101335.59;5032333;28;45407;-74
2021/08/21 09:10:16;;;;;;;;;8.00;7.00;;;;;29.01;50.18;101338.81;5033514;28;45654;-73
2021/08/21 09:12:41;;;;;;;;;7.25;6.75;;;;;29.21;50.24;101336.56;5029978;28;46156;-73
2021/08/21 09:15:19;;;;;;;;;10.25;7.25;;;;;29.79;49.78;101346.22;5033667;28;45454;-73
2021/08/21 09:18:21;;;;;;;;;7.75;7.75;;;;;30.63;49.07;101348.03;5033862;28;45386;-73
2021/08/21 09:20:46;;;;;;;;;7.00;7.00;;;;;31.08;48.23;101350.91;4972151;28;45462;-73
2021/08/21 09:23:21;;;;;;;;;7.00;5.33;;;;;31.54;46.93;101348.03;4971944;28;46668;-73
2021/08/21 09:25:48;;;;;;;;;9.00;8.75;;;;;31.97;46.36;101337.31;4955837;28;45579;-73
2021/08/21 09:28:18;;;;;;;;;8.75;6.50;;;;;32.23;44.86;101340.31;4957159;28;45462;-74
2021/08/21 09:30:44;;;;;;;;;8.00;7.25;;;;;32.42;44.76;101342.44;4968752;28;45482;-73
2021/08/21 09:33:09;;;;;;;;;6.75;6.75;;;;;32.83;44.26;101333.56;4971814;28;45925;-73
2021/08/21 09:35:35;;;;;;;;;8.50;7.00;;;;;33.20;43.55;101323.34;4976148;28;45825;-74
2021/08/21 09:38:02;;;;;;;;;6.00;4.50;;;;;33.42;43.79;101335.91;4972008;28;45591;-74
2021/08/21 09:40:34;;;;;;;;;7.00;7.00;;;;;33.50;42.81;101341.16;4972407;28;45607;-74
2021/08/21 09:43:03;;;;;;;;;5.25;5.25;;;;;33.45;43.22;101334.63;4971847;28;46180;-73
2021/08/21 09:45:28;;;;;;;;;6.25;6.25;;;;;33.38;43.07;101339.19;4972523;28;45401;-74
2021/08/21 09:48:01;;;;;;;;;6.00;5.25;;;;;33.39;43.25;101335.41;4971551;28;45653;-74
2021/08/21 09:50:31;;;;;;;;;6.75;6.25;;;;;33.48;43.16;101336.97;4972125;28;45516;-74
2021/08/21 09:53:06;;;;;;;;;6.00;5.75;;;;;33.36;42.47;101328.50;4971661;28;45519;-74
2021/08/21 09:55:31;;;;;;;;;7.25;4.75;;;;;33.28;42.14;101315.03;5021984;28;45457;-73
2021/08/21 09:58:00;;;;;;;;;7.50;6.25;;;;;33.23;43.29;101323.81;5033569;28;45412;-73
2021/08/21 10:00:28;;;;;;;;;7.75;7.50;;;;;33.23;42.29;101320.25;5032200;28;45387;-74
2021/08/21 10:02:55;;;;;;;;;5.75;4.50;;;;;33.29;42.71;101313.97;5032259;28;45521;-74
2021/08/21 10:05:22;;;;;;;;;6.25;5.25;;;;;33.59;42.00;101302.84;5035753;28;45670;-74
2021/08/21 10:07:53;;;;;;;;;4.25;3.75;;;;;33.95;41.93;101311.59;5036887;28;45503;-74
2021/08/21 10:10:22;;;;;;;;;9.75;6.00;;;;;34.29;42.29;101312.47;5036858;28;45622;-74
2021/08/21 10:12:53;;;;;;;;;5.50;5.50;;;;;34.41;40.91;101307.28;5036644;28;46181;-74
2021/08/21 10:15:20;;;;;;;;;8.25;5.75;;;;;34.64;40.65;101307.72;5034821;28;45591;-75
2021/08/21 10:17:47;;;;;;;;;4.00;4.00;;;;;34.86;39.51;101312.94;5015224;28;45368;-73
2021/08/21 10:20:13;;;;;;;;;4.50;4.50;;;;;34.77;39.88;101307.72;5028671;28;45439;-74
2021/08/21 10:22:40;;;;;;;;;7.00;6.00;;;;;34.51;39.13;101300.38;5036332;28;45524;-73
2021/08/21 10:25:08;;;;;;;;;6.75;6.50;;;;;34.24;39.77;101318.56;5036281;28;45403;-74
2021/08/21 10:27:53;;;;;;;;;7.25;7.25;;;;;33.74;39.64;101315.28;5037052;28;45518;-74
2021/08/21 10:30:25;;;;;;;;;7.50;7.25;;;;;33.38;40.54;101310.06;5036021;28;45395;-74
2021/08/21 10:33:02;;;;;;;;;7.00;6.25;;;;;33.28;40.87;101320.47;5035589;28;46055;-74
2021/08/21 10:35:48;;;;;;;;;6.50;6.00;;;;;33.15;41.12;101318.53;5036231;28;45451;-74
2021/08/21 10:38:29;;;;;;;;;10.75;8.00;;;;;33.14;40.72;101316.00;5036237;28;45490;-74
2021/08/21 10:40:55;;;;;;;;;6.75;6.75;;;;;32.85;40.57;101287.94;5035989;28;45625;-75
2021/08/21 10:43:44;;;;;;;;;6.25;6.00;;;;;32.85;40.95;101307.00;5036165;28;46598;-74
2021/08/21 10:46:10;;;;;;;;;7.50;6.50;;;;;32.65;41.33;101298.66;5035710;28;45327;-74
2021/08/21 10:48:38;;;;;;;;;6.50;5.25;;;;;32.69;41.40;101310.84;5036694;28;45261;-74
2021/08/21 10:51:32;;;;;;;;;5.75;5.75;;;;;32.70;41.14;101309.81;5035896;28;45331;-74
2021/08/21 10:53:58;;;;;;;;;5.50;5.50;;;;;32.76;41.24;101307.34;5035780;28;46461;-74
2021/08/21 10:56:34;;;;;;;;;7.75;7.00;;;;;32.78;41.16;101313.41;5014535;28;45592;-74
2021/08/21 10:58:59;;;;;;;;;9.50;7.00;;;;;32.85;41.54;101301.53;5024979;28;45628;-74
2021/08/21 11:01:24;;;;;;;;;4.75;4.75;;;;;32.77;40.13;101281.78;5035939;28;47034;-74
2021/08/21 11:03:51;;;;;;;;;6.50;4.00;;;;;32.85;41.51;101307.00;5034992;28;47001;-74
2021/08/21 11:06:29;;;;;;;;;5.00;5.00;;;;;32.94;41.63;101310.41;5035155;28;45508;-75
2021/08/21 11:08:57;;;;;;;;;6.50;5.50;;;;;32.79;41.05;101304.22;5036180;28;45337;-74
2021/08/21 11:11:38;;;;;;;;;6.00;6.00;;;;;32.48;41.14;101300.00;5035394;28;45659;-74
2021/08/21 11:14:07;;;;;;;;;6.25;6.25;;;;;32.20;41.75;101297.19;5034929;28;46400;-74
2021/08/21 11:19:24;;;;;;;;;7.25;6.00;;;;;31.93;42.50;101302.34;5020562;28;45457;-75
2021/08/21 11:21:50;;;;;;;;;6.50;5.25;;;;;31.93;43.04;101299.63;5036090;28;45603;-75
2021/08/21 11:24:51;;;;;;;;;8.00;7.50;;;;;31.98;42.87;101299.06;5034097;28;50018;-74
2021/08/21 11:27:22;;;;;;;;;7.25;7.25;;;;;31.98;43.08;101295.50;4973135;28;45471;-73